Time;durP1;ratioP1;P1;durP2;ratioP2;P2;SDS_P1;SDS_P2;PMS_P1;PMS_P2;Temp;Humidity;BMP_temperature;BMP_pressure;BME280_temperature;BME280_humidity;BME280_pressure;Samples;Min_cycle;Max_cycle;Signal;HPM_P1;HPM_P2
2023/05/17 00:02:50;;;;;;;25.33;19.35;;;11.20;99.90;;;;;;2602946;54;20109;31
2023/05/17 00:05:32;;;;;;;24.70;20.02;;;11.20;99.90;;;;;;2602992;54;20030;31
2023/05/17 00:11:03;;;;;;;30.23;20.02;;;11.20;99.90;;;;;;2602501;54;20943;31
2023/05/17 00:13:53;;;;;;;32.95;22.25;;;11.20;99.90;;;;;;2602879;54;20794;31
2023/05/17 00:16:30;;;;;;;29.88;21.33;;;11.20;99.90;;;;;;2603094;54;20058;31
2023/05/17 00:19:09;;;;;;;27.90;19.60;;;11.20;99.90;;;;;;2602785;54;20902;31
2023/05/17 00:21:51;;;;;;;25.35;19.55;;;11.10;99.90;;;;;;2602682;54;20093;31
2023/05/17 00:24:27;;;;;;;23.80;19.25;;;11.10;99.90;;;;;;2602810;54;19935;31
2023/05/17 00:27:05;;;;;;;26.27;21.35;;;11.10;99.90;;;;;;2602756;54;20860;31
2023/05/17 00:32:25;;;;;;;31.38;19.80;;;11.10;99.90;;;;;;2628621;39;21399;31
2023/05/17 00:35:04;;;;;;;28.33;20.07;;;11.10;99.90;;;;;;2602984;54;20114;31
2023/05/17 00:37:46;;;;;;;31.40;19.60;;;11.00;99.90;;;;;;2622145;46;19934;31
2023/05/17 00:40:23;;;;;;;31.15;21.30;;;11.00;99.90;;;;;;2603621;54;20862;31
2023/05/17 00:43:02;;;;;;;24.27;18.48;;;11.00;99.90;;;;;;2603618;54;21559;31
2023/05/17 00:45:38;;;;;;;33.75;21.30;;;11.00;99.90;;;;;;2621934;46;20052;31
2023/05/17 00:51:14;;;;;;;23.70;18.25;;;10.90;99.90;;;;;;2603854;54;20032;31
2023/05/17 00:53:55;;;;;;;28.17;18.58;;;10.90;99.90;;;;;;2621789;46;20022;31
2023/05/17 00:56:31;;;;;;;24.15;17.50;;;10.90;99.90;;;;;;2603623;54;19934;31
2023/05/17 00:59:08;;;;;;;24.92;18.98;;;10.90;99.90;;;;;;2603620;54;20097;31
2023/05/17 01:01:46;;;;;;;23.95;18.27;;;10.90;99.90;;;;;;2602945;54;20018;31
2023/05/17 01:04:25;;;;;;;25.40;17.05;;;10.90;99.90;;;;;;2603483;54;20871;31
2023/05/17 01:07:02;;;;;;;24.80;18.60;;;10.80;99.90;;;;;;2603494;54;20118;31
2023/05/17 01:09:44;;;;;;;29.75;18.63;;;10.80;99.90;;;;;;2629675;39;21395;31
2023/05/17 01:12:28;;;;;;;28.58;18.65;;;10.80;99.90;;;;;;2603697;54;20033;31
2023/05/17 01:15:10;;;;;;;28.13;17.20;;;10.80;99.90;;;;;;2603428;54;20030;31
2023/05/17 01:17:52;;;;;;;21.63;15.80;;;10.80;99.90;;;;;;2602759;54;20877;31
2023/05/17 01:20:41;;;;;;;23.48;16.83;;;10.70;99.90;;;;;;2659521;39;20429;31
2023/05/17 01:23:28;;;;;;;26.38;17.65;;;10.70;99.90;;;;;;2603608;54;20748;31
2023/05/17 01:26:07;;;;;;;20.35;17.10;;;10.70;99.90;;;;;;2603560;54;20500;31
2023/05/17 01:28:48;;;;;;;31.65;18.90;;;10.80;99.90;;;;;;2691273;39;20432;31
2023/05/17 01:31:24;;;;;;;20.83;15.93;;;10.80;99.90;;;;;;2603403;54;20026;31
2023/05/17 01:34:08;;;;;;;28.73;19.33;;;10.70;99.90;;;;;;2621886;46;20863;31
2023/05/17 01:39:22;;;;;;;25.92;16.38;;;10.70;99.90;;;;;;2603512;54;20068;31
2023/05/17 01:42:10;;;;;;;21.58;16.48;;;10.70;99.90;;;;;;2603571;54;20030;31
2023/05/17 01:44:50;;;;;;;24.25;17.70;;;10.70;99.90;;;;;;2603494;54;20865;31
2023/05/17 01:47:35;;;;;;;24.02;16.55;;;10.70;99.90;;;;;;2621398;46;20916;31
2023/05/17 01:50:12;;;;;;;22.83;17.33;;;10.70;99.90;;;;;;2603431;54;20026;31
2023/05/17 01:52:55;;;;;;;23.63;16.10;;;10.70;99.90;;;;;;2603157;54;20022;31
2023/05/17 01:55:35;;;;;;;28.13;17.77;;;10.70;99.90;;;;;;2603499;54;20457;31
2023/05/17 01:58:11;;;;;;;30.38;17.80;;;10.60;99.90;;;;;;2622108;46;20057;31
2023/05/17 02:01:05;;;;;;;28.48;17.73;;;10.60;99.90;;;;;;2603136;54;20827;31
2023/05/17 02:03:40;;;;;;;22.02;17.65;;;10.60;99.90;;;;;;2621854;46;20754;31
2023/05/17 02:06:20;;;;;;;26.00;17.20;;;10.60;99.90;;;;;;2622080;46;20046;31
2023/05/17 02:08:57;;;;;;;20.65;14.90;;;10.60;99.90;;;;;;2621618;46;20851;31
2023/05/17 02:11:34;;;;;;;20.20;15.90;;;10.60;99.90;;;;;;2603480;54;20026;31
2023/05/17 02:14:12;;;;;;;21.17;15.00;;;10.60;99.90;;;;;;2603299;54;20733;31
2023/05/17 02:16:54;;;;;;;23.63;16.75;;;10.50;99.90;;;;;;2603271;54;20034;31
2023/05/17 02:19:32;;;;;;;18.77;14.53;;;10.50;99.90;;;;;;2603836;46;20149;31
2023/05/17 02:22:11;;;;;;;24.88;15.73;;;10.50;99.90;;;;;;2603223;54;20146;31
2023/05/17 02:24:49;;;;;;;18.75;13.65;;;10.50;99.90;;;;;;2603356;54;20066;31
2023/05/17 02:27:25;;;;;;;17.40;12.55;;;10.50;99.90;;;;;;2603586;54;20874;31
2023/05/17 02:30:01;;;;;;;23.20;13.87;;;10.50;99.90;;;;;;2603312;54;20046;31
2023/05/17 02:32:45;;;;;;;21.87;14.07;;;10.40;99.90;;;;;;2603478;54;20026;31
2023/05/17 02:35:23;;;;;;;19.20;13.05;;;10.40;99.90;;;;;;2603402;54;20182;31
2023/05/17 02:37:57;;;;;;;18.97;13.47;;;10.40;99.90;;;;;;2620472;46;20050;31
2023/05/17 02:40:36;;;;;;;19.38;12.25;;;10.40;99.90;;;;;;2614254;46;20061;31
2023/05/17 02:43:12;;;;;;;17.05;11.35;;;10.40;99.90;;;;;;2621701;46;20973;31
2023/05/17 02:45:53;;;;;;;18.83;10.55;;;10.40;99.90;;;;;;2621329;46;20911;31
2023/05/17 02:48:34;;;;;;;13.82;9.48;;;10.40;99.90;;;;;;2603025;54;20026;31
2023/05/17 02:51:13;;;;;;;15.00;9.20;;;10.30;99.90;;;;;;2603282;54;20807;31
2023/05/17 02:53:48;;;;;;;16.85;9.18;;;10.30;99.90;;;;;;2603285;54;20026;31
2023/05/17 02:56:23;;;;;;;14.57;8.70;;;10.30;99.90;;;;;;2621807;46;20026;31
2023/05/17 02:59:01;;;;;;;16.38;8.32;;;10.30;99.90;;;;;;2602887;54;20948;31
2023/05/17 03:01:39;;;;;;;14.38;8.52;;;10.20;99.90;;;;;;2603194;54;20128;31
2023/05/17 03:04:21;;;;;;;14.10;7.70;;;10.20;99.90;;;;;;2603302;54;20037;31
2023/05/17 03:06:56;;;;;;;10.57;7.40;;;10.20;99.90;;;;;;2621753;46;20160;31
2023/05/17 03:09:38;;;;;;;16.17;7.90;;;10.10;99.90;;;;;;2621657;46;20023;31
2023/05/17 03:12:14;;;;;;;11.25;7.07;;;10.10;99.90;;;;;;2602320;54;20760;31
2023/05/17 03:14:56;;;;;;;16.55;7.60;;;10.10;99.90;;;;;;2603045;54;20022;31
2023/05/17 03:17:33;;;;;;;9.85;7.18;;;10.10;99.90;;;;;;2602403;54;20022;31
2023/05/17 03:20:15;;;;;;;12.35;6.38;;;10.00;99.90;;;;;;2602194;54;20034;31
2023/05/17 03:22:52;;;;;;;15.75;7.30;;;10.00;99.90;;;;;;2603134;54;20150;31
2023/05/17 03:25:31;;;;;;;10.48;6.70;;;10.00;99.90;;;;;;2602335;54;20921;31
2023/05/17 03:28:08;;;;;;;10.90;6.15;;;10.00;99.90;;;;;;2603062;54;20758;31
2023/05/17 03:30:44;;;;;;;10.02;6.18;;;9.90;99.90;;;;;;2602978;54;20054;31
2023/05/17 03:33:22;;;;;;;10.93;6.43;;;9.90;99.90;;;;;;2602248;54;20027;31
2023/05/17 03:36:04;;;;;;;14.60;6.55;;;9.90;99.90;;;;;;2602510;54;20886;31
2023/05/17 03:38:41;;;;;;;12.02;6.60;;;9.80;99.90;;;;;;2607295;46;21006;31
2023/05/17 03:41:21;;;;;;;12.60;5.75;;;9.80;99.90;;;;;;2602344;54;20046;31
2023/05/17 03:44:00;;;;;;;10.02;5.78;;;9.70;99.90;;;;;;2602759;54;20769;31
2023/05/17 03:46:37;;;;;;;12.57;5.68;;;9.70;99.90;;;;;;2602977;54;20838;31
2023/05/17 03:49:13;;;;;;;12.60;5.80;;;9.70;99.90;;;;;;2621554;46;20037;31
2023/05/17 03:51:54;;;;;;;15.33;5.93;;;9.70;99.90;;;;;;2602193;54;20046;31
2023/05/17 03:54:36;;;;;;;8.43;5.22;;;9.70;99.90;;;;;;2602047;54;20261;31
2023/05/17 03:57:21;;;;;;;10.15;4.75;;;9.70;99.90;;;;;;2602913;54;20922;31
2023/05/17 04:02:31;;;;;;;10.18;5.28;;;9.70;99.90;;;;;;2602957;54;20026;31
2023/05/17 04:05:09;;;;;;;8.93;4.68;;;9.70;99.90;;;;;;2646692;39;21519;31
2023/05/17 04:08:01;;;;;;;13.90;4.47;;;9.70;99.90;;;;;;2602920;54;20070;31
2023/05/17 04:10:40;;;;;;;7.10;3.67;;;9.70;99.90;;;;;;2602840;54;20249;31
2023/05/17 04:13:17;;;;;;;10.15;4.18;;;9.70;99.90;;;;;;2602037;54;20022;31
2023/05/17 04:15:55;;;;;;;11.52;4.50;;;9.70;99.90;;;;;;2602991;54;21093;31
2023/05/17 04:18:32;;;;;;;7.72;3.70;;;9.80;99.90;;;;;;2602934;54;20097;31
2023/05/17 04:21:10;;;;;;;15.15;4.35;;;9.80;99.90;;;;;;2602510;54;20046;31
2023/05/17 04:23:53;;;;;;;10.88;4.22;;;9.80;99.90;;;;;;2602623;54;20887;31
2023/05/17 04:26:29;;;;;;;9.27;3.42;;;9.80;99.90;;;;;;2652155;39;22272;31
2023/05/17 04:29:11;;;;;;;9.02;4.10;;;9.80;99.90;;;;;;2603077;54;20903;31
2023/05/17 04:31:51;;;;;;;13.13;4.00;;;9.80;99.90;;;;;;2602789;54;20046;31
2023/05/17 04:34:33;;;;;;;9.87;3.80;;;9.90;99.90;;;;;;2602723;54;20054;31
2023/05/17 04:37:22;;;;;;;9.55;3.30;;;9.90;99.90;;;;;;2602780;54;20026;31
2023/05/17 04:40:13;;;;;;;5.35;2.72;;;9.90;99.90;;;;;;2602692;54;20893;31
2023/05/17 04:42:52;;;;;;;7.45;2.75;;;9.90;99.90;;;;;;2603048;54;20081;31
2023/05/17 04:45:29;;;;;;;8.60;3.13;;;9.80;99.90;;;;;;2602678;54;20022;31
2023/05/17 04:48:15;;;;;;;9.18;2.95;;;9.80;99.90;;;;;;2601872;54;21462;31
2023/05/17 04:50:53;;;;;;;6.80;3.00;;;9.80;99.90;;;;;;2602842;54;20815;31
2023/05/17 04:53:30;;;;;;;3.78;2.30;;;9.80;99.90;;;;;;2602769;54;20027;31
2023/05/17 04:56:21;;;;;;;7.65;2.50;;;9.80;99.90;;;;;;2602099;54;20066;31
2023/05/17 04:59:01;;;;;;;7.30;2.30;;;9.80;99.90;;;;;;2602949;54;20034;31
2023/05/17 05:01:50;;;;;;;8.50;2.85;;;9.80;99.90;;;;;;2620691;47;20057;31
2023/05/17 05:04:32;;;;;;;9.25;2.95;;;9.80;99.90;;;;;;2601959;54;20932;31
2023/05/17 05:07:11;;;;;;;7.55;3.20;;;9.80;99.90;;;;;;2601991;54;20764;31
2023/05/17 05:09:56;;;;;;;8.57;3.78;;;9.90;99.90;;;;;;2602581;54;20859;31
2023/05/17 05:15:32;;;;;;;6.55;3.00;;;9.90;99.90;;;;;;2602678;54;20041;31
2023/05/17 05:18:17;;;;;;;11.35;3.60;;;9.90;99.90;;;;;;2602822;54;20034;31
2023/05/17 05:20:53;;;;;;;10.27;3.80;;;10.00;99.90;;;;;;2602234;54;20829;31
2023/05/17 05:23:41;;;;;;;7.43;2.33;;;10.00;99.90;;;;;;2603332;54;20032;31
2023/05/17 05:29:20;;;;;;;6.63;2.42;;;10.10;99.90;;;;;;2603134;54;20857;31
2023/05/17 05:32:03;;;;;;;9.73;2.30;;;10.20;99.90;;;;;;2606974;46;20137;31
2023/05/17 05:34:46;;;;;;;5.80;1.92;;;10.30;99.90;;;;;;2619045;39;20333;31
2023/05/17 05:37:25;;;;;;;6.63;2.30;;;10.40;99.90;;;;;;2603386;54;20053;31
2023/05/17 05:40:04;;;;;;;6.80;2.10;;;10.40;99.90;;;;;;2621588;46;20030;31
2023/05/17 05:42:40;;;;;;;6.53;2.08;;;10.50;99.90;;;;;;2603517;54;21527;31
2023/05/17 05:45:24;;;;;;;5.35;1.80;;;10.60;99.90;;;;;;2628037;39;20919;31
2023/05/17 05:48:08;;;;;;;7.18;2.03;;;10.70;99.90;;;;;;2603167;54;20077;31
2023/05/17 05:50:51;;;;;;;6.40;2.25;;;10.80;99.90;;;;;;2603436;54;20505;31
2023/05/17 05:53:29;;;;;;;4.80;1.63;;;10.90;99.90;;;;;;2621484;46;20036;31
2023/05/17 05:56:10;;;;;;;5.18;1.70;;;11.00;99.90;;;;;;2621541;46;20740;31
2023/05/17 05:58:47;;;;;;;5.72;1.50;;;11.10;99.90;;;;;;2621775;46;20027;31
2023/05/17 06:01:22;;;;;;;;;;;11.10;99.90;;;;;;2603422;54;21173;31
2023/05/17 06:04:07;;;;;;;7.00;1.67;;;11.20;99.90;;;;;;2621797;46;20798;31
2023/05/17 06:06:44;;;;;;;5.90;1.75;;;11.30;99.90;;;;;;2604438;46;20026;31
2023/05/17 06:09:21;;;;;;;8.55;2.35;;;11.30;99.90;;;;;;2602418;54;20023;31
2023/05/17 06:11:57;;;;;;;6.32;2.00;;;11.30;99.90;;;;;;2621661;46;20026;31
2023/05/17 06:17:11;;;;;;;7.05;1.77;;;11.50;99.90;;;;;;2603271;54;20026;31
2023/05/17 06:19:51;;;;;;;9.82;2.00;;;11.60;99.90;;;;;;2621695;46;20029;31
2023/05/17 06:22:27;;;;;;;5.25;1.92;;;11.70;99.90;;;;;;2603449;54;20045;31
2023/05/17 06:25:02;;;;;;;9.10;2.00;;;11.70;99.90;;;;;;2603135;54;20203;31
2023/05/17 06:27:39;;;;;;;8.00;2.00;;;11.70;99.90;;;;;;2621724;46;20037;31
2023/05/17 06:30:17;;;;;;;10.00;2.05;;;11.70;99.90;;;;;;2602352;54;20283;31
2023/05/17 06:32:53;;;;;;;11.65;3.15;;;11.70;99.90;;;;;;2602141;54;20898;31
2023/05/17 06:35:31;;;;;;;8.40;2.27;;;11.80;99.90;;;;;;2620749;46;22243;31
2023/05/17 06:38:28;;;;;;;7.60;2.20;;;11.80;99.90;;;;;;2621535;46;20030;31
2023/05/17 06:41:05;;;;;;;7.50;2.17;;;11.80;99.90;;;;;;2603200;54;20756;31
2023/05/17 06:43:40;;;;;;;7.00;2.40;;;11.80;99.90;;;;;;2603076;54;20049;31
2023/05/17 06:46:22;;;;;;;11.10;2.80;;;11.90;99.90;;;;;;2620446;46;20023;31
2023/05/17 06:49:04;;;;;;;7.53;2.30;;;11.90;99.90;;;;;;2621143;46;20029;31
2023/05/17 06:51:48;;;;;;;4.22;2.05;;;11.90;99.90;;;;;;2621732;46;20053;31
2023/05/17 06:54:24;;;;;;;12.60;3.72;;;11.90;99.90;;;;;;2621582;46;20053;31
2023/05/17 06:57:16;;;;;;;12.52;2.58;;;11.90;99.90;;;;;;2603324;54;20941;31
2023/05/17 06:59:57;;;;;;;8.90;2.67;;;11.90;99.90;;;;;;2602063;54;20931;31
2023/05/17 07:02:37;;;;;;;14.73;3.33;;;11.90;99.90;;;;;;2606366;46;20232;31
2023/05/17 07:05:16;;;;;;;22.15;3.50;;;11.90;99.90;;;;;;2617397;46;20884;31
2023/05/17 07:07:57;;;;;;;8.55;2.05;;;11.90;99.90;;;;;;2613050;39;20310;31
2023/05/17 07:10:38;;;;;;;9.25;2.67;;;11.90;99.90;;;;;;2613274;46;20034;31
2023/05/17 07:13:16;;;;;;;11.93;2.78;;;12.00;99.90;;;;;;2621610;46;20038;31
2023/05/17 07:15:53;;;;;;;15.15;3.35;;;12.00;99.90;;;;;;2603046;54;20787;31
2023/05/17 07:18:30;;;;;;;;;;;12.00;99.90;;;;;;2618726;46;20840;31
2023/05/17 07:21:14;;;;;;;9.23;2.77;;;11.90;99.90;;;;;;2621450;46;19946;31
2023/05/17 07:23:54;;;;;;;7.53;2.70;;;11.90;99.90;;;;;;2602893;54;19934;31
2023/05/17 07:26:35;;;;;;;10.95;3.15;;;11.80;99.90;;;;;;2606248;46;20862;31
2023/05/17 07:29:13;;;;;;;6.63;2.40;;;11.80;99.90;;;;;;2621393;46;20085;31
2023/05/17 07:31:56;;;;;;;15.00;3.17;;;11.80;99.90;;;;;;2602668;54;20050;31
2023/05/17 07:34:39;;;;;;;7.25;2.33;;;11.70;99.90;;;;;;2602778;54;20790;31
2023/05/17 07:37:15;;;;;;;10.00;2.88;;;11.70;99.90;;;;;;2603108;54;20903;31
2023/05/17 07:39:53;;;;;;;11.82;3.08;;;11.70;99.90;;;;;;2602440;54;20030;31
2023/05/17 07:42:41;;;;;;;14.25;4.00;;;11.80;99.90;;;;;;2602759;54;20882;31
2023/05/17 07:45:18;;;;;;;16.67;2.97;;;11.80;99.90;;;;;;2602743;54;20740;31
2023/05/17 07:47:58;;;;;;;12.63;3.00;;;11.90;99.90;;;;;;2602958;54;20675;31
2023/05/17 07:50:35;;;;;;;10.95;2.85;;;11.90;99.90;;;;;;2602798;54;20243;31
2023/05/17 07:53:14;;;;;;;10.38;2.72;;;11.90;99.90;;;;;;2602566;54;20864;31
2023/05/17 07:55:51;;;;;;;13.48;3.22;;;12.00;99.90;;;;;;2602820;54;20870;31
2023/05/17 07:58:33;;;;;;;11.40;3.40;;;12.00;99.90;;;;;;2602680;54;20027;31
2023/05/17 08:01:09;;;;;;;9.48;3.00;;;12.00;99.90;;;;;;2602849;54;20030;31
2023/05/17 08:03:50;;;;;;;9.75;3.15;;;12.00;99.90;;;;;;2620719;46;20101;31
2023/05/17 08:06:30;;;;;;;10.55;3.40;;;12.00;99.90;;;;;;2621376;46;20033;31
2023/05/17 08:09:06;;;;;;;10.65;3.20;;;11.90;99.90;;;;;;2602963;54;20900;31
2023/05/17 08:11:44;;;;;;;9.77;3.00;;;11.90;99.90;;;;;;2602780;54;20037;31
2023/05/17 08:14:27;;;;;;;10.13;3.20;;;12.00;99.90;;;;;;2621179;47;20777;31
2023/05/17 08:19:41;;;;;;;9.13;3.07;;;12.10;99.90;;;;;;2603120;54;20885;31
2023/05/17 08:22:18;;;;;;;12.35;3.58;;;12.10;99.90;;;;;;2602897;54;20026;31
2023/05/17 08:24:55;;;;;;;12.13;3.47;;;12.10;99.90;;;;;;2602045;54;20912;31
2023/05/17 08:27:32;;;;;;;9.52;3.75;;;12.10;99.90;;;;;;2602640;54;20046;31
2023/05/17 08:30:14;;;;;;;10.50;4.30;;;12.10;99.90;;;;;;2602953;54;20073;31
2023/05/17 08:33:04;;;;;;;10.57;3.50;;;12.10;99.90;;;;;;2602682;54;20769;31
2023/05/17 08:35:42;;;;;;;9.27;3.60;;;12.10;99.90;;;;;;2602041;54;20830;31
2023/05/17 08:38:21;;;;;;;11.05;4.03;;;12.20;99.90;;;;;;2621188;47;20037;31
2023/05/17 08:40:58;;;;;;;10.40;4.07;;;12.20;99.90;;;;;;2602808;54;20846;31
2023/05/17 08:43:38;;;;;;;13.02;4.03;;;12.20;99.90;;;;;;2621163;47;20038;31
2023/05/17 08:46:21;;;;;;;14.35;3.58;;;12.20;99.90;;;;;;2708900;39;21402;31
2023/05/17 08:48:58;;;;;;;12.50;4.60;;;12.20;99.90;;;;;;2602743;54;20896;31
2023/05/17 08:51:38;;;;;;;16.20;4.00;;;12.20;99.90;;;;;;2602864;54;20038;31
2023/05/17 08:54:17;;;;;;;10.63;4.07;;;12.10;99.90;;;;;;2602674;54;20101;31
2023/05/17 08:56:52;;;;;;;11.77;4.15;;;12.10;99.90;;;;;;2602841;54;20737;31
2023/05/17 08:59:32;;;;;;;12.00;4.10;;;12.10;99.90;;;;;;2603588;54;20117;31
2023/05/17 09:02:11;;;;;;;13.48;3.95;;;12.10;99.90;;;;;;2618720;39;21507;31
2023/05/17 09:04:49;;;;;;;10.23;3.30;;;12.10;99.90;;;;;;2621309;46;20034;31
2023/05/17 09:07:35;;;;;;;13.65;4.30;;;12.20;99.90;;;;;;2621907;46;20058;31
2023/05/17 09:10:12;;;;;;;9.55;3.25;;;12.20;99.90;;;;;;2603789;54;20022;31
2023/05/17 09:12:47;;;;;;;11.50;3.47;;;12.30;99.90;;;;;;2603192;54;20859;31
2023/05/17 09:15:25;;;;;;;10.98;3.58;;;12.40;99.90;;;;;;2603340;54;20778;31
2023/05/17 09:18:07;;;;;;;13.23;4.03;;;12.40;99.90;;;;;;2602546;54;20462;31
2023/05/17 09:20:45;;;;;;;7.83;2.87;;;12.50;99.90;;;;;;2610782;46;20030;31
2023/05/17 09:23:22;;;;;;;14.68;3.17;;;12.60;99.90;;;;;;2603477;54;20031;31
2023/05/17 09:26:12;;;;;;;8.05;3.38;;;12.60;99.90;;;;;;2603411;54;20076;31
2023/05/17 09:28:48;;;;;;;16.05;3.90;;;12.70;99.90;;;;;;2603402;54;20058;31
2023/05/17 09:31:25;;;;;;;14.47;3.47;;;12.70;99.90;;;;;;2620231;46;20068;31
2023/05/17 09:34:08;;;;;;;12.07;3.85;;;12.70;99.90;;;;;;2603350;54;20849;31
2023/05/17 09:36:47;;;;;;;13.25;3.58;;;12.70;99.90;;;;;;2603316;54;20034;31
2023/05/17 09:42:04;;;;;;;18.30;3.97;;;12.80;99.90;;;;;;2602527;54;20041;31
2023/05/17 09:44:56;;;;;;;14.55;3.90;;;12.80;99.90;;;;;;2603426;54;20778;31
2023/05/17 09:47:36;;;;;;;10.70;3.13;;;12.90;99.90;;;;;;2603423;54;21505;31
2023/05/17 09:50:23;;;;;;;8.65;3.05;;;13.00;99.90;;;;;;2602824;54;20142;31
2023/05/17 09:53:05;;;;;;;13.50;4.55;;;13.00;99.90;;;;;;2603037;54;20101;31
2023/05/17 09:55:43;;;;;;;18.95;3.55;;;13.10;99.90;;;;;;2603449;54;20029;31
2023/05/17 09:58:18;;;;;;;10.68;3.67;;;13.10;99.90;;;;;;2621660;46;20077;31
2023/05/17 10:00:55;;;;;;;14.37;4.63;;;13.10;99.90;;;;;;2603120;54;20041;31
2023/05/17 10:03:34;;;;;;;11.30;3.28;;;13.10;99.90;;;;;;2621901;46;20239;31
2023/05/17 10:06:18;;;;;;;11.20;3.15;;;13.10;99.90;;;;;;2603359;54;20033;31
2023/05/17 10:11:34;;;;;;;7.82;3.10;;;13.10;99.90;;;;;;2603348;54;20763;31
2023/05/17 10:14:12;;;;;;;8.20;3.40;;;13.10;99.90;;;;;;2603571;54;20069;31
2023/05/17 10:16:49;;;;;;;10.48;3.45;;;13.10;99.90;;;;;;2603235;54;20046;31
2023/05/17 10:19:25;;;;;;;8.93;3.30;;;13.10;99.90;;;;;;2621313;46;20926;31
2023/05/17 10:22:06;;;;;;;9.07;3.15;;;13.10;99.90;;;;;;2603118;54;20026;31
2023/05/17 10:24:58;;;;;;;7.75;3.17;;;13.00;99.90;;;;;;2603608;54;20034;31
2023/05/17 10:27:38;;;;;;;8.80;3.00;;;13.10;99.90;;;;;;2621841;46;20035;31
2023/05/17 10:30:16;;;;;;;18.70;3.17;;;13.20;99.90;;;;;;2603183;54;20878;31
2023/05/17 10:32:53;;;;;;;9.50;3.10;;;13.10;99.90;;;;;;2603183;54;20919;31
2023/05/17 10:35:34;;;;;;;13.75;3.50;;;13.10;99.90;;;;;;2603225;54;21276;31
2023/05/17 10:38:17;;;;;;;10.82;2.92;;;13.20;99.90;;;;;;2603215;54;20835;31
2023/05/17 10:40:58;;;;;;;13.07;2.90;;;13.20;99.90;;;;;;2602279;54;20030;31
2023/05/17 10:43:37;;;;;;;10.02;3.28;;;13.20;99.90;;;;;;2603159;54;20038;31
2023/05/17 10:46:20;;;;;;;7.28;3.13;;;13.20;99.90;;;;;;2603162;54;20026;31
2023/05/17 10:48:56;;;;;;;10.05;3.30;;;13.30;99.90;;;;;;2603075;54;20899;31
2023/05/17 10:51:36;;;;;;;8.70;3.45;;;13.20;99.90;;;;;;2621640;46;20050;31
2023/05/17 10:54:20;;;;;;;12.00;2.90;;;13.20;99.90;;;;;;2606753;46;20915;31
2023/05/17 10:56:58;;;;;;;8.05;2.83;;;13.20;99.90;;;;;;2621519;46;20818;31
2023/05/17 11:02:08;;;;;;;11.40;2.75;;;13.10;99.90;;;;;;2603404;54;20042;31
2023/05/17 11:04:52;;;;;;;14.60;2.90;;;13.10;99.90;;;;;;2603196;54;20096;31
2023/05/17 11:07:31;;;;;;;13.85;2.90;;;13.20;99.90;;;;;;2602817;54;20026;31
2023/05/17 11:10:16;;;;;;;10.95;2.95;;;13.20;99.90;;;;;;2602451;54;20945;31
2023/05/17 11:12:54;;;;;;;6.68;2.50;;;13.20;99.90;;;;;;2602388;54;20940;31
2023/05/17 11:15:30;;;;;;;7.97;3.03;;;13.20;99.90;;;;;;2602930;54;20990;31
2023/05/17 11:18:06;;;;;;;12.25;3.35;;;13.20;99.90;;;;;;2602937;54;20030;31
2023/05/17 11:21:10;;;;;;;6.65;2.25;;;13.20;99.90;;;;;;2621289;47;20053;31
2023/05/17 11:23:50;;;;;;;;;;;13.20;99.90;;;;;;2603420;54;20030;31
2023/05/17 11:26:43;;;;;;;7.65;2.35;;;13.20;99.90;;;;;;2602737;54;19934;31
2023/05/17 11:29:23;;;;;;;5.80;2.47;;;13.20;99.90;;;;;;2603349;54;20029;31
2023/05/17 11:32:03;;;;;;;6.60;2.35;;;13.20;99.90;;;;;;2619705;46;20023;31
2023/05/17 11:34:40;;;;;;;4.93;2.20;;;13.20;99.90;;;;;;2602072;54;20034;31
2023/05/17 11:37:27;;;;;;;5.90;1.95;;;13.30;99.90;;;;;;2601889;54;20034;31
2023/05/17 11:40:08;;;;;;;9.38;2.83;;;13.30;99.90;;;;;;2603588;46;20908;31
2023/05/17 11:42:51;;;;;;;11.90;3.22;;;13.40;99.90;;;;;;2603105;54;20019;31
2023/05/17 11:45:27;;;;;;;10.70;2.60;;;13.40;99.90;;;;;;2602996;54;20026;31
2023/05/17 11:48:10;;;;;;;10.90;2.38;;;13.40;99.90;;;;;;2603070;54;20033;31
2023/05/17 11:50:48;;;;;;;6.25;1.80;;;13.40;99.90;;;;;;2602890;54;20452;31
2023/05/17 11:53:27;;;;;;;6.00;1.80;;;13.40;99.90;;;;;;2603174;54;20844;31
2023/05/17 11:56:06;;;;;;;5.82;1.75;;;13.40;99.90;;;;;;2621233;46;19990;31
2023/05/17 11:58:46;;;;;;;4.35;1.95;;;13.40;99.90;;;;;;2602669;54;20034;31
2023/05/17 12:01:23;;;;;;;8.20;2.35;;;13.40;99.90;;;;;;2602733;54;20022;31
2023/05/17 12:04:03;;;;;;;9.32;2.72;;;13.40;99.90;;;;;;2601870;54;20073;31
2023/05/17 12:06:39;;;;;;;5.50;1.77;;;13.50;99.90;;;;;;2601747;54;20833;31
2023/05/17 12:09:17;;;;;;;;;;;13.50;99.90;;;;;;2602249;54;20966;31
2023/05/17 12:11:56;;;;;;;6.30;1.67;;;13.40;99.90;;;;;;2621364;46;20776;31
2023/05/17 12:14:38;;;;;;;7.38;2.22;;;13.40;99.90;;;;;;2602997;54;20080;31
2023/05/17 12:17:15;;;;;;;6.85;2.13;;;13.30;99.90;;;;;;2602010;54;20022;31
2023/05/17 12:20:00;;;;;;;8.50;2.47;;;13.40;99.90;;;;;;2601979;54;20050;31
2023/05/17 12:22:40;;;;;;;6.38;2.08;;;13.40;99.90;;;;;;2602674;54;20031;31
2023/05/17 12:25:24;;;;;;;23.45;4.55;;;13.40;99.90;;;;;;2602093;54;20038;31
2023/05/17 12:28:20;;;;;;;12.80;2.95;;;13.40;99.90;;;;;;2601935;54;20732;31
2023/05/17 12:31:01;;;;;;;;;;;13.40;99.90;;;;;;2645902;39;20417;31
2023/05/17 12:33:46;;;;;;;10.20;2.63;;;13.30;99.90;;;;;;2602773;54;19934;31
2023/05/17 12:36:24;;;;;;;4.53;1.77;;;13.30;99.90;;;;;;2602700;54;20875;31
2023/05/17 12:39:08;;;;;;;9.15;2.78;;;13.30;99.90;;;;;;2602458;54;21367;31
2023/05/17 12:41:44;;;;;;;7.15;2.15;;;13.20;99.90;;;;;;2603383;54;20897;31
2023/05/17 12:44:22;;;;;;;6.78;2.42;;;13.20;99.90;;;;;;2603876;54;20903;31
2023/05/17 12:47:03;;;;;;;11.40;2.85;;;13.20;99.90;;;;;;2603538;54;20049;31
2023/05/17 12:49:46;;;;;;;7.15;2.40;;;13.30;99.90;;;;;;2603470;54;20085;31
2023/05/17 12:52:25;;;;;;;8.85;2.75;;;13.30;99.90;;;;;;2603564;54;20022;31
2023/05/17 12:55:03;;;;;;;6.90;2.30;;;13.30;99.90;;;;;;2622130;46;20042;31
2023/05/17 12:57:39;;;;;;;6.07;1.95;;;13.30;99.90;;;;;;2603680;54;20034;31
2023/05/17 13:00:21;;;;;;;6.97;3.28;;;13.30;99.90;;;;;;2603434;54;20880;31
2023/05/17 13:03:06;;;;;;;7.47;2.60;;;13.30;99.90;;;;;;2603435;54;20044;31
2023/05/17 13:05:43;;;;;;;7.10;2.40;;;13.30;99.90;;;;;;2621960;46;20274;31
2023/05/17 13:08:23;;;;;;;4.10;2.20;;;13.30;99.90;;;;;;2603373;54;20101;31
2023/05/17 13:11:40;;;;;;;4.78;1.80;;;13.30;99.90;;;;;;2603275;54;20029;31
2023/05/17 13:14:16;;;;;;;5.25;2.10;;;13.30;99.90;;;;;;2603399;54;20023;31
2023/05/17 13:16:52;;;;;;;;;;;13.40;99.90;;;;;;2603375;54;20055;31
2023/05/17 13:19:33;;;;;;;6.33;2.10;;;13.40;99.90;;;;;;2603388;54;20005;31
2023/05/17 13:22:14;;;;;;;5.82;2.13;;;13.40;99.90;;;;;;2603617;54;20124;31
2023/05/17 13:24:50;;;;;;;9.00;2.33;;;13.40;99.90;;;;;;2618838;39;21486;31
2023/05/17 13:27:28;;;;;;;5.93;2.10;;;13.30;99.90;;;;;;2619652;46;20033;31
2023/05/17 13:30:05;;;;;;;5.05;2.22;;;13.30;99.90;;;;;;2603395;54;20874;31
2023/05/17 13:32:42;;;;;;;8.10;2.40;;;13.30;99.90;;;;;;2603564;54;20851;31
2023/05/17 13:35:29;;;;;;;4.75;2.50;;;13.30;99.90;;;;;;2603409;54;20141;31
2023/05/17 13:38:20;;;;;;;8.63;2.70;;;13.30;99.90;;;;;;2601133;54;20027;31
2023/05/17 13:40:55;;;;;;;7.80;2.20;;;13.30;99.90;;;;;;2600928;54;21127;31
2023/05/17 13:43:32;;;;;;;5.77;2.80;;;13.40;99.90;;;;;;2601499;54;20027;31
2023/05/17 13:46:08;;;;;;;6.65;2.53;;;13.40;99.90;;;;;;2603346;54;19950;31
2023/05/17 13:48:45;;;;;;;;;;;13.40;99.90;;;;;;2603054;54;20022;31
2023/05/17 13:51:31;;;;;;;6.15;2.17;;;13.40;99.90;;;;;;2648581;31;21445;31
2023/05/17 13:54:11;;;;;;;8.75;3.03;;;13.40;99.90;;;;;;2621435;46;20929;31
2023/05/17 13:56:47;;;;;;;7.37;3.50;;;13.40;99.90;;;;;;2621226;46;20033;31
2023/05/17 13:59:29;;;;;;;15.13;3.33;;;13.50;99.90;;;;;;2621788;46;20050;31
2023/05/17 14:02:05;;;;;;;8.80;2.88;;;13.50;99.90;;;;;;2603208;54;20763;31
2023/05/17 14:04:43;;;;;;;10.75;3.65;;;13.50;99.90;;;;;;2603381;54;20104;31
2023/05/17 14:07:21;;;;;;;9.50;3.33;;;13.50;99.90;;;;;;2603254;54;21547;31
2023/05/17 14:10:03;;;;;;;9.23;3.25;;;13.60;99.90;;;;;;2603291;54;20928;31
2023/05/17 14:12:40;;;;;;;12.02;2.85;;;13.50;99.90;;;;;;2602686;54;20072;31
2023/05/17 14:15:20;;;;;;;7.40;2.75;;;13.50;99.90;;;;;;2628300;39;21522;31
2023/05/17 14:17:58;;;;;;;8.07;3.17;;;13.50;99.90;;;;;;2603358;54;20030;31
2023/05/17 14:20:33;;;;;;;10.23;3.13;;;13.60;99.90;;;;;;2603260;54;20029;31
2023/05/17 14:23:11;;;;;;;11.05;3.85;;;13.60;99.90;;;;;;2603178;54;20085;31
2023/05/17 14:25:56;;;;;;;9.57;2.70;;;13.60;99.90;;;;;;2603247;54;20030;31
2023/05/17 14:28:36;;;;;;;10.50;2.70;;;13.60;99.90;;;;;;2603514;54;20026;31
2023/05/17 14:31:14;;;;;;;8.50;2.83;;;13.60;99.90;;;;;;2621774;46;21520;31
2023/05/17 14:33:51;;;;;;;10.73;3.75;;;13.60;99.90;;;;;;2602259;54;20867;31